Noshahr, Iran
Current Conditions -  °F | °C
As of 3:00 AM on Saturday 25 Oct 2014 (Local Time) from OINN Reporting Station
Drizzle Drizzle  
Wind Chill: 63°   Ceiling: 1500
Heat Index: 63°   Visibility: 4mi
Dew Point: 63°   Wind: 0mph
Humidity: 100%   Direction: NA
Pressure: 30.03"   Gusts: NA
Location:  36.65°N, 51.5°E
Report Text: OINN 250000Z 00000KT 6000 -DZ OVC015 17/17 Q1017
Loading
Personal Weather Stations






























Interactive Weather Map
Tropical Storm Tracking
New forecast layout! Learn more

10-Day Weather Forecast

Advertisements
Track Severe Weather on mobile